sensor_id;sensor_type;location;lat;lon;timestamp;temperature;humidity
9118;DHT22;4594;50.994;7.126;2023-06-26T00:00:42;25.20;32.50
9118;DHT22;4594;50.994;7.126;2023-06-26T00:03:07;25.20;32.40
9118;DHT22;4594;50.994;7.126;2023-06-26T00:05:33;25.10;32.40
9118;DHT22;4594;50.994;7.126;2023-06-26T00:07:59;25.10;32.30
9118;DHT22;4594;50.994;7.126;2023-06-26T00:10:26;25.10;32.90
9118;DHT22;4594;50.994;7.126;2023-06-26T00:12:53;25.00;32.40
9118;DHT22;4594;50.994;7.126;2023-06-26T00:15:19;25.00;32.60
9118;DHT22;4594;50.994;7.126;2023-06-26T00:17:45;25.00;32.60
9118;DHT22;4594;50.994;7.126;2023-06-26T00:20:11;24.90;32.60
9118;DHT22;4594;50.994;7.126;2023-06-26T00:22:37;24.90;32.60
9118;DHT22;4594;50.994;7.126;2023-06-26T00:25:07;24.80;32.60
9118;DHT22;4594;50.994;7.126;2023-06-26T00:27:33;24.80;32.70
9118;DHT22;4594;50.994;7.126;2023-06-26T00:29:59;24.80;32.80
9118;DHT22;4594;50.994;7.126;2023-06-26T00:32:24;24.70;32.70
9118;DHT22;4594;50.994;7.126;2023-06-26T00:34:50;24.70;32.80
9118;DHT22;4594;50.994;7.126;2023-06-26T00:37:16;24.60;32.80
9118;DHT22;4594;50.994;7.126;2023-06-26T00:39:41;24.60;32.80
9118;DHT22;4594;50.994;7.126;2023-06-26T00:42:07;24.50;32.80
9118;DHT22;4594;50.994;7.126;2023-06-26T00:44:33;24.50;32.90
9118;DHT22;4594;50.994;7.126;2023-06-26T00:46:59;24.50;33.00
9118;DHT22;4594;50.994;7.126;2023-06-26T00:49:26;24.40;32.90
9118;DHT22;4594;50.994;7.126;2023-06-26T00:51:52;24.30;32.90
9118;DHT22;4594;50.994;7.126;2023-06-26T00:54:19;24.30;32.90
9118;DHT22;4594;50.994;7.126;2023-06-26T00:56:47;24.30;32.90
9118;DHT22;4594;50.994;7.126;2023-06-26T00:59:13;24.20;32.90
9118;DHT22;4594;50.994;7.126;2023-06-26T01:01:40;24.20;32.90
9118;DHT22;4594;50.994;7.126;2023-06-26T01:04:06;24.20;33.00
9118;DHT22;4594;50.994;7.126;2023-06-26T01:06:33;24.10;33.00
9118;DHT22;4594;50.994;7.126;2023-06-26T01:09:02;24.10;33.00
9118;DHT22;4594;50.994;7.126;2023-06-26T01:11:28;24.10;33.10
9118;DHT22;4594;50.994;7.126;2023-06-26T01:13:54;24.00;33.00
9118;DHT22;4594;50.994;7.126;2023-06-26T01:16:23;24.00;33.10
9118;DHT22;4594;50.994;7.126;2023-06-26T01:18:50;24.00;33.20
9118;DHT22;4594;50.994;7.126;2023-06-26T01:21:17;23.90;33.10
9118;DHT22;4594;50.994;7.126;2023-06-26T01:24:07;23.90;33.10
9118;DHT22;4594;50.994;7.126;2023-06-26T01:26:47;23.90;33.30
9118;DHT22;4594;50.994;7.126;2023-06-26T01:29:15;23.80;33.10
9118;DHT22;4594;50.994;7.126;2023-06-26T01:31:44;23.80;33.10
9118;DHT22;4594;50.994;7.126;2023-06-26T01:34:17;23.80;33.10
9118;DHT22;4594;50.994;7.126;2023-06-26T01:36:46;23.80;33.20
9118;DHT22;4594;50.994;7.126;2023-06-26T01:39:17;23.80;33.20
9118;DHT22;4594;50.994;7.126;2023-06-26T01:41:44;23.70;33.20
9118;DHT22;4594;50.994;7.126;2023-06-26T01:46:47;23.70;33.20
9118;DHT22;4594;50.994;7.126;2023-06-26T01:49:29;23.70;33.30
9118;DHT22;4594;50.994;7.126;2023-06-26T01:52:29;23.70;33.30
9118;DHT22;4594;50.994;7.126;2023-06-26T01:55:31;23.70;33.30
9118;DHT22;4594;50.994;7.126;2023-06-26T01:58:06;23.70;33.20
9118;DHT22;4594;50.994;7.126;2023-06-26T02:00:33;23.60;33.10
9118;DHT22;4594;50.994;7.126;2023-06-26T02:03:00;23.60;33.00
9118;DHT22;4594;50.994;7.126;2023-06-26T02:05:25;23.50;33.10
9118;DHT22;4594;50.994;7.126;2023-06-26T02:07:51;23.50;33.20
9118;DHT22;4594;50.994;7.126;2023-06-26T02:10:17;23.50;33.20
9118;DHT22;4594;50.994;7.126;2023-06-26T02:12:43;23.50;33.30
9118;DHT22;4594;50.994;7.126;2023-06-26T02:15:09;23.40;33.20
9118;DHT22;4594;50.994;7.126;2023-06-26T02:17:35;23.40;33.30
9118;DHT22;4594;50.994;7.126;2023-06-26T02:20:00;23.40;33.30
9118;DHT22;4594;50.994;7.126;2023-06-26T02:22:26;23.40;33.30
9118;DHT22;4594;50.994;7.126;2023-06-26T02:24:54;23.40;33.30
9118;DHT22;4594;50.994;7.126;2023-06-26T02:27:20;23.30;33.30
9118;DHT22;4594;50.994;7.126;2023-06-26T02:29:45;23.30;33.40
9118;DHT22;4594;50.994;7.126;2023-06-26T02:32:11;23.30;33.40
9118;DHT22;4594;50.994;7.126;2023-06-26T02:34:37;23.30;33.50
9118;DHT22;4594;50.994;7.126;2023-06-26T02:37:03;23.20;33.40
9118;DHT22;4594;50.994;7.126;2023-06-26T02:39:28;23.20;33.50
9118;DHT22;4594;50.994;7.126;2023-06-26T02:41:54;23.10;33.50
9118;DHT22;4594;50.994;7.126;2023-06-26T02:44:20;23.00;33.40
9118;DHT22;4594;50.994;7.126;2023-06-26T02:46:46;23.00;33.50
9118;DHT22;4594;50.994;7.126;2023-06-26T02:49:12;22.90;33.50
9118;DHT22;4594;50.994;7.126;2023-06-26T02:51:38;22.90;33.60
9118;DHT22;4594;50.994;7.126;2023-06-26T02:54:04;22.80;33.60
9118;DHT22;4594;50.994;7.126;2023-06-26T02:56:29;22.80;33.60
9118;DHT22;4594;50.994;7.126;2023-06-26T02:58:56;22.70;33.70
9118;DHT22;4594;50.994;7.126;2023-06-26T03:01:22;22.60;33.70
9118;DHT22;4594;50.994;7.126;2023-06-26T03:03:47;22.50;33.70
9118;DHT22;4594;50.994;7.126;2023-06-26T03:06:14;22.50;33.80
9118;DHT22;4594;50.994;7.126;2023-06-26T03:08:40;22.40;33.80
9118;DHT22;4594;50.994;7.126;2023-06-26T03:11:07;22.40;33.90
9118;DHT22;4594;50.994;7.126;2023-06-26T03:13:35;22.30;33.90
9118;DHT22;4594;50.994;7.126;2023-06-26T03:16:03;22.20;33.90
9118;DHT22;4594;50.994;7.126;2023-06-26T03:18:29;22.20;33.90
9118;DHT22;4594;50.994;7.126;2023-06-26T03:20:56;22.10;33.90
9118;DHT22;4594;50.994;7.126;2023-06-26T03:23:23;22.10;34.00
9118;DHT22;4594;50.994;7.126;2023-06-26T03:25:50;22.00;34.00
9118;DHT22;4594;50.994;7.126;2023-06-26T03:28:16;22.00;34.10
9118;DHT22;4594;50.994;7.126;2023-06-26T03:30:42;21.90;34.10
9118;DHT22;4594;50.994;7.126;2023-06-26T03:33:08;21.90;34.10
9118;DHT22;4594;50.994;7.126;2023-06-26T03:35:34;21.90;34.20
9118;DHT22;4594;50.994;7.126;2023-06-26T03:38:00;21.80;34.20
9118;DHT22;4594;50.994;7.126;2023-06-26T03:40:26;21.80;34.20
9118;DHT22;4594;50.994;7.126;2023-06-26T03:42:52;21.80;34.30
9118;DHT22;4594;50.994;7.126;2023-06-26T03:45:18;21.70;34.30
9118;DHT22;4594;50.994;7.126;2023-06-26T03:47:45;21.70;34.30
9118;DHT22;4594;50.994;7.126;2023-06-26T03:50:17;21.70;34.40
9118;DHT22;4594;50.994;7.126;2023-06-26T03:52:43;21.70;34.50
9118;DHT22;4594;50.994;7.126;2023-06-26T03:55:08;21.70;34.60
9118;DHT22;4594;50.994;7.126;2023-06-26T03:57:34;21.70;34.60
9118;DHT22;4594;50.994;7.126;2023-06-26T04:00:00;21.70;34.70
9118;DHT22;4594;50.994;7.126;2023-06-26T04:02:26;21.70;34.70
9118;DHT22;4594;50.994;7.126;2023-06-26T04:04:52;21.70;34.70
9118;DHT22;4594;50.994;7.126;2023-06-26T04:07:18;21.70;34.80
9118;DHT22;4594;50.994;7.126;2023-06-26T04:09:44;21.70;34.90
9118;DHT22;4594;50.994;7.126;2023-06-26T04:12:10;21.70;35.20
9118;DHT22;4594;50.994;7.126;2023-06-26T04:14:36;21.70;34.90
9118;DHT22;4594;50.994;7.126;2023-06-26T04:17:01;21.70;35.00
9118;DHT22;4594;50.994;7.126;2023-06-26T04:19:29;21.80;35.50
9118;DHT22;4594;50.994;7.126;2023-06-26T04:21:55;21.80;35.20
9118;DHT22;4594;50.994;7.126;2023-06-26T04:24:22;21.80;35.20
9118;DHT22;4594;50.994;7.126;2023-06-26T04:26:48;21.90;35.40
9118;DHT22;4594;50.994;7.126;2023-06-26T04:29:13;21.90;35.40
9118;DHT22;4594;50.994;7.126;2023-06-26T04:31:39;22.00;35.50
9118;DHT22;4594;50.994;7.126;2023-06-26T04:34:05;22.10;35.70
9118;DHT22;4594;50.994;7.126;2023-06-26T04:36:31;22.10;35.60
9118;DHT22;4594;50.994;7.126;2023-06-26T04:38:58;22.20;35.70
9118;DHT22;4594;50.994;7.126;2023-06-26T04:41:25;22.20;35.80
9118;DHT22;4594;50.994;7.126;2023-06-26T04:43:51;22.30;35.90
9118;DHT22;4594;50.994;7.126;2023-06-26T04:46:16;22.40;36.10
9118;DHT22;4594;50.994;7.126;2023-06-26T04:48:42;22.50;36.20
9118;DHT22;4594;50.994;7.126;2023-06-26T04:51:10;22.60;36.40
9118;DHT22;4594;50.994;7.126;2023-06-26T04:53:36;22.80;36.50
9118;DHT22;4594;50.994;7.126;2023-06-26T04:56:03;23.00;36.60
9118;DHT22;4594;50.994;7.126;2023-06-26T04:58:29;23.10;36.70
9118;DHT22;4594;50.994;7.126;2023-06-26T05:00:55;23.40;36.90
9118;DHT22;4594;50.994;7.126;2023-06-26T05:03:21;23.50;36.90
9118;DHT22;4594;50.994;7.126;2023-06-26T05:05:47;23.70;36.90
9118;DHT22;4594;50.994;7.126;2023-06-26T05:08:15;24.00;37.10
9118;DHT22;4594;50.994;7.126;2023-06-26T05:10:42;24.20;37.10
9118;DHT22;4594;50.994;7.126;2023-06-26T05:13:08;24.40;37.10
9118;DHT22;4594;50.994;7.126;2023-06-26T05:15:34;24.60;37.10
9118;DHT22;4594;50.994;7.126;2023-06-26T05:17:59;24.90;37.20
9118;DHT22;4594;50.994;7.126;2023-06-26T05:20:25;25.10;37.20
9118;DHT22;4594;50.994;7.126;2023-06-26T05:22:51;25.40;37.20
9118;DHT22;4594;50.994;7.126;2023-06-26T05:25:18;25.60;37.10
9118;DHT22;4594;50.994;7.126;2023-06-26T05:27:47;25.90;37.10
9118;DHT22;4594;50.994;7.126;2023-06-26T05:30:13;26.10;37.10
9118;DHT22;4594;50.994;7.126;2023-06-26T05:32:40;26.40;37.00
9118;DHT22;4594;50.994;7.126;2023-06-26T05:35:07;26.70;37.00
9118;DHT22;4594;50.994;7.126;2023-06-26T05:37:33;26.90;36.80
9118;DHT22;4594;50.994;7.126;2023-06-26T05:40:00;27.10;36.70
9118;DHT22;4594;50.994;7.126;2023-06-26T05:42:30;27.30;36.50
9118;DHT22;4594;50.994;7.126;2023-06-26T05:44:56;27.40;36.30
9118;DHT22;4594;50.994;7.126;2023-06-26T05:47:22;27.60;36.20
9118;DHT22;4594;50.994;7.126;2023-06-26T05:49:49;27.60;36.00
9118;DHT22;4594;50.994;7.126;2023-06-26T05:52:14;27.70;35.90
9118;DHT22;4594;50.994;7.126;2023-06-26T05:54:41;27.80;35.90
9118;DHT22;4594;50.994;7.126;2023-06-26T05:57:07;27.80;35.90
9118;DHT22;4594;50.994;7.126;2023-06-26T05:59:33;28.00;35.90
9118;DHT22;4594;50.994;7.126;2023-06-26T06:02:02;28.10;35.90
9118;DHT22;4594;50.994;7.126;2023-06-26T06:04:28;28.20;35.90
9118;DHT22;4594;50.994;7.126;2023-06-26T06:06:53;28.40;36.00
9118;DHT22;4594;50.994;7.126;2023-06-26T06:09:19;28.60;35.90
9118;DHT22;4594;50.994;7.126;2023-06-26T06:11:45;28.80;35.80
9118;DHT22;4594;50.994;7.126;2023-06-26T06:14:10;28.90;35.60
9118;DHT22;4594;50.994;7.126;2023-06-26T06:16:36;29.00;35.40
9118;DHT22;4594;50.994;7.126;2023-06-26T06:19:02;29.10;35.20
9118;DHT22;4594;50.994;7.126;2023-06-26T06:21:28;29.00;35.00
9118;DHT22;4594;50.994;7.126;2023-06-26T06:23:54;29.00;35.10
9118;DHT22;4594;50.994;7.126;2023-06-26T06:26:20;29.00;35.30
9118;DHT22;4594;50.994;7.126;2023-06-26T06:28:46;29.10;35.50
9118;DHT22;4594;50.994;7.126;2023-06-26T06:31:11;29.20;35.60
9118;DHT22;4594;50.994;7.126;2023-06-26T06:33:37;29.50;35.60
9118;DHT22;4594;50.994;7.126;2023-06-26T06:36:03;29.60;35.40
9118;DHT22;4594;50.994;7.126;2023-06-26T06:38:29;29.80;35.50
9118;DHT22;4594;50.994;7.126;2023-06-26T06:40:54;30.00;35.50
9118;DHT22;4594;50.994;7.126;2023-06-26T06:43:20;30.20;35.60
9118;DHT22;4594;50.994;7.126;2023-06-26T06:45:46;30.50;35.50
9118;DHT22;4594;50.994;7.126;2023-06-26T06:48:11;30.80;35.40
9118;DHT22;4594;50.994;7.126;2023-06-26T06:50:37;30.90;35.10
9118;DHT22;4594;50.994;7.126;2023-06-26T06:53:03;31.00;34.90
9118;DHT22;4594;50.994;7.126;2023-06-26T06:55:29;31.00;34.70
9118;DHT22;4594;50.994;7.126;2023-06-26T06:57:54;31.00;34.70
9118;DHT22;4594;50.994;7.126;2023-06-26T07:00:20;31.10;34.90
9118;DHT22;4594;50.994;7.126;2023-06-26T07:02:46;31.10;34.80
9118;DHT22;4594;50.994;7.126;2023-06-26T07:05:12;31.10;34.80
9118;DHT22;4594;50.994;7.126;2023-06-26T07:07:39;31.20;34.70
9118;DHT22;4594;50.994;7.126;2023-06-26T07:10:06;31.30;34.70
9118;DHT22;4594;50.994;7.126;2023-06-26T07:12:34;31.30;34.80
9118;DHT22;4594;50.994;7.126;2023-06-26T07:15:01;31.50;35.00
9118;DHT22;4594;50.994;7.126;2023-06-26T07:17:28;31.70;34.90
9118;DHT22;4594;50.994;7.126;2023-06-26T07:19:54;31.80;35.00
9118;DHT22;4594;50.994;7.126;2023-06-26T07:22:20;31.90;34.50
9118;DHT22;4594;50.994;7.126;2023-06-26T07:24:46;31.90;34.30
9118;DHT22;4594;50.994;7.126;2023-06-26T07:27:17;31.80;34.00
9118;DHT22;4594;50.994;7.126;2023-06-26T07:29:44;31.80;34.20
9118;DHT22;4594;50.994;7.126;2023-06-26T07:32:10;31.90;34.40
9118;DHT22;4594;50.994;7.126;2023-06-26T07:34:36;32.00;34.50
9118;DHT22;4594;50.994;7.126;2023-06-26T07:37:02;32.30;34.80
9118;DHT22;4594;50.994;7.126;2023-06-26T07:39:29;32.60;34.90
9118;DHT22;4594;50.994;7.126;2023-06-26T07:41:55;32.90;34.70
9118;DHT22;4594;50.994;7.126;2023-06-26T07:44:23;33.20;34.80
9118;DHT22;4594;50.994;7.126;2023-06-26T07:46:49;33.50;34.60
9118;DHT22;4594;50.994;7.126;2023-06-26T07:49:15;33.60;34.30
9118;DHT22;4594;50.994;7.126;2023-06-26T07:51:40;33.80;34.20
9118;DHT22;4594;50.994;7.126;2023-06-26T07:54:06;34.00;34.20
9118;DHT22;4594;50.994;7.126;2023-06-26T07:56:38;34.20;34.20
9118;DHT22;4594;50.994;7.126;2023-06-26T07:59:19;34.50;34.30
9118;DHT22;4594;50.994;7.126;2023-06-26T08:01:44;34.80;34.40
9118;DHT22;4594;50.994;7.126;2023-06-26T08:04:10;35.20;34.50
9118;DHT22;4594;50.994;7.126;2023-06-26T08:06:36;35.60;34.50
9118;DHT22;4594;50.994;7.126;2023-06-26T08:09:08;35.90;34.30
9118;DHT22;4594;50.994;7.126;2023-06-26T08:11:34;36.30;34.30
9118;DHT22;4594;50.994;7.126;2023-06-26T08:14:00;36.60;34.10
9118;DHT22;4594;50.994;7.126;2023-06-26T08:16:25;36.90;34.00
9118;DHT22;4594;50.994;7.126;2023-06-26T08:18:51;37.20;34.00
9118;DHT22;4594;50.994;7.126;2023-06-26T08:21:17;37.50;33.70
9118;DHT22;4594;50.994;7.126;2023-06-26T08:23:42;37.70;33.40
9118;DHT22;4594;50.994;7.126;2023-06-26T08:26:08;37.90;33.30
9118;DHT22;4594;50.994;7.126;2023-06-26T08:28:34;38.10;33.30
9118;DHT22;4594;50.994;7.126;2023-06-26T08:30:59;38.20;33.10
9118;DHT22;4594;50.994;7.126;2023-06-26T08:33:25;38.30;32.90
9118;DHT22;4594;50.994;7.126;2023-06-26T08:35:51;38.30;32.60
9118;DHT22;4594;50.994;7.126;2023-06-26T08:38:17;38.30;32.50
9118;DHT22;4594;50.994;7.126;2023-06-26T08:40:42;38.20;32.20
9118;DHT22;4594;50.994;7.126;2023-06-26T08:43:08;38.10;32.10
9118;DHT22;4594;50.994;7.126;2023-06-26T08:45:34;37.90;31.90
9118;DHT22;4594;50.994;7.126;2023-06-26T08:48:01;37.80;32.10
9118;DHT22;4594;50.994;7.126;2023-06-26T08:50:30;37.70;32.20
9118;DHT22;4594;50.994;7.126;2023-06-26T08:56:00;37.60;32.00
9118;DHT22;4594;50.994;7.126;2023-06-26T08:58:27;37.70;32.30
9118;DHT22;4594;50.994;7.126;2023-06-26T09:00:53;37.80;32.30
9118;DHT22;4594;50.994;7.126;2023-06-26T09:03:21;37.90;32.30
9118;DHT22;4594;50.994;7.126;2023-06-26T09:05:48;37.90;32.50
9118;DHT22;4594;50.994;7.126;2023-06-26T09:08:14;38.10;32.10
9118;DHT22;4594;50.994;7.126;2023-06-26T09:10:40;38.00;31.80
9118;DHT22;4594;50.994;7.126;2023-06-26T09:13:06;37.90;31.60
9118;DHT22;4594;50.994;7.126;2023-06-26T09:15:39;37.80;31.50
9118;DHT22;4594;50.994;7.126;2023-06-26T09:18:07;37.80;31.30
9118;DHT22;4594;50.994;7.126;2023-06-26T09:20:33;37.60;31.50
9118;DHT22;4594;50.994;7.126;2023-06-26T09:23:00;37.50;31.50
9118;DHT22;4594;50.994;7.126;2023-06-26T09:25:27;37.30;31.30
9118;DHT22;4594;50.994;7.126;2023-06-26T09:27:53;37.20;31.40
9118;DHT22;4594;50.994;7.126;2023-06-26T09:30:20;37.00;31.30
9118;DHT22;4594;50.994;7.126;2023-06-26T09:32:46;36.80;31.20
9118;DHT22;4594;50.994;7.126;2023-06-26T09:35:12;36.60;31.10
9118;DHT22;4594;50.994;7.126;2023-06-26T09:37:38;36.40;31.10
9118;DHT22;4594;50.994;7.126;2023-06-26T09:40:05;36.20;31.30
9118;DHT22;4594;50.994;7.126;2023-06-26T09:42:32;36.20;31.50
9118;DHT22;4594;50.994;7.126;2023-06-26T09:44:58;36.30;31.70
9118;DHT22;4594;50.994;7.126;2023-06-26T09:47:24;36.40;31.70
9118;DHT22;4594;50.994;7.126;2023-06-26T09:49:49;36.50;31.70
9118;DHT22;4594;50.994;7.126;2023-06-26T09:52:18;36.60;31.60
9118;DHT22;4594;50.994;7.126;2023-06-26T09:54:45;36.70;31.50
9118;DHT22;4594;50.994;7.126;2023-06-26T09:57:13;36.90;31.60
9118;DHT22;4594;50.994;7.126;2023-06-26T09:59:41;37.10;31.70
9118;DHT22;4594;50.994;7.126;2023-06-26T10:02:07;37.30;31.70
9118;DHT22;4594;50.994;7.126;2023-06-26T10:04:35;37.60;31.70
9118;DHT22;4594;50.994;7.126;2023-06-26T10:07:10;37.80;31.60
9118;DHT22;4594;50.994;7.126;2023-06-26T10:09:41;38.20;31.20
9118;DHT22;4594;50.994;7.126;2023-06-26T10:12:19;38.30;31.30
9118;DHT22;4594;50.994;7.126;2023-06-26T10:14:50;38.60;31.20
9118;DHT22;4594;50.994;7.126;2023-06-26T10:17:19;38.80;31.40
9118;DHT22;4594;50.994;7.126;2023-06-26T10:19:48;39.00;31.30
9118;DHT22;4594;50.994;7.126;2023-06-26T10:22:18;39.20;31.20
9118;DHT22;4594;50.994;7.126;2023-06-26T10:24:47;39.40;30.90
9118;DHT22;4594;50.994;7.126;2023-06-26T10:27:20;39.60;31.00
9118;DHT22;4594;50.994;7.126;2023-06-26T10:29:56;39.70;30.70
9118;DHT22;4594;50.994;7.126;2023-06-26T10:32:26;39.80;30.30
9118;DHT22;4594;50.994;7.126;2023-06-26T10:34:53;39.80;30.50
9118;DHT22;4594;50.994;7.126;2023-06-26T10:37:21;39.70;30.40
9118;DHT22;4594;50.994;7.126;2023-06-26T10:40:06;39.60;30.20
9118;DHT22;4594;50.994;7.126;2023-06-26T10:42:36;39.40;30.00
9118;DHT22;4594;50.994;7.126;2023-06-26T10:45:20;39.30;30.00
9118;DHT22;4594;50.994;7.126;2023-06-26T10:47:47;39.20;30.00
9118;DHT22;4594;50.994;7.126;2023-06-26T10:50:28;39.20;30.00
9118;DHT22;4594;50.994;7.126;2023-06-26T10:55:54;39.40;29.90
9118;DHT22;4594;50.994;7.126;2023-06-26T11:03:38;39.80;29.90
9118;DHT22;4594;50.994;7.126;2023-06-26T11:06:16;40.00;30.00
9118;DHT22;4594;50.994;7.126;2023-06-26T11:08:53;40.10;29.80
9118;DHT22;4594;50.994;7.126;2023-06-26T11:11:21;40.10;29.60
9118;DHT22;4594;50.994;7.126;2023-06-26T11:14:07;40.10;29.50
9118;DHT22;4594;50.994;7.126;2023-06-26T11:16:34;40.00;29.50
9118;DHT22;4594;50.994;7.126;2023-06-26T11:19:00;40.00;29.40
9118;DHT22;4594;50.994;7.126;2023-06-26T11:21:27;39.80;29.40
9118;DHT22;4594;50.994;7.126;2023-06-26T11:23:53;39.80;29.20
9118;DHT22;4594;50.994;7.126;2023-06-26T11:26:23;39.70;29.20
9118;DHT22;4594;50.994;7.126;2023-06-26T11:28:54;39.70;29.20
9118;DHT22;4594;50.994;7.126;2023-06-26T11:31:28;39.70;29.00
9118;DHT22;4594;50.994;7.126;2023-06-26T11:33:56;39.60;28.80
9118;DHT22;4594;50.994;7.126;2023-06-26T11:36:24;39.50;29.00
9118;DHT22;4594;50.994;7.126;2023-06-26T11:38:58;39.50;29.00
9118;DHT22;4594;50.994;7.126;2023-06-26T11:41:30;39.40;28.80
9118;DHT22;4594;50.994;7.126;2023-06-26T11:44:03;39.30;28.80
9118;DHT22;4594;50.994;7.126;2023-06-26T11:46:31;39.20;28.70
9118;DHT22;4594;50.994;7.126;2023-06-26T11:48:57;38.90;28.60
9118;DHT22;4594;50.994;7.126;2023-06-26T11:51:23;38.80;28.60
9118;DHT22;4594;50.994;7.126;2023-06-26T11:53:51;38.50;28.50
9118;DHT22;4594;50.994;7.126;2023-06-26T11:56:18;38.30;28.50
9118;DHT22;4594;50.994;7.126;2023-06-26T11:59:14;38.00;28.40
9118;DHT22;4594;50.994;7.126;2023-06-26T12:01:41;37.80;28.40
9118;DHT22;4594;50.994;7.126;2023-06-26T12:04:12;37.50;28.40
9118;DHT22;4594;50.994;7.126;2023-06-26T12:06:45;37.30;28.40
9118;DHT22;4594;50.994;7.126;2023-06-26T12:09:13;37.00;28.30
9118;DHT22;4594;50.994;7.126;2023-06-26T12:11:41;36.70;28.30
9118;DHT22;4594;50.994;7.126;2023-06-26T12:14:09;36.50;28.30
9118;DHT22;4594;50.994;7.126;2023-06-26T12:16:36;36.40;28.40
9118;DHT22;4594;50.994;7.126;2023-06-26T12:19:06;36.20;28.40
9118;DHT22;4594;50.994;7.126;2023-06-26T12:24:08;35.80;28.40
9118;DHT22;4594;50.994;7.126;2023-06-26T12:26:36;35.60;28.20
9118;DHT22;4594;50.994;7.126;2023-06-26T12:29:06;35.30;28.10
9118;DHT22;4594;50.994;7.126;2023-06-26T12:31:34;35.10;28.10
9118;DHT22;4594;50.994;7.126;2023-06-26T12:34:01;34.90;28.10
9118;DHT22;4594;50.994;7.126;2023-06-26T12:36:27;34.70;28.10
9118;DHT22;4594;50.994;7.126;2023-06-26T12:38:54;34.50;28.20
9118;DHT22;4594;50.994;7.126;2023-06-26T12:41:20;34.30;28.20
9118;DHT22;4594;50.994;7.126;2023-06-26T12:43:48;34.10;28.20
9118;DHT22;4594;50.994;7.126;2023-06-26T12:46:15;33.90;28.20
9118;DHT22;4594;50.994;7.126;2023-06-26T12:48:42;33.70;28.10
9118;DHT22;4594;50.994;7.126;2023-06-26T12:51:15;33.50;28.20
9118;DHT22;4594;50.994;7.126;2023-06-26T12:53:42;33.40;28.20
9118;DHT22;4594;50.994;7.126;2023-06-26T12:56:09;33.20;28.20
9118;DHT22;4594;50.994;7.126;2023-06-26T12:58:36;33.00;28.20
9118;DHT22;4594;50.994;7.126;2023-06-26T13:01:04;32.80;28.20
9118;DHT22;4594;50.994;7.126;2023-06-26T13:03:40;32.60;28.20
9118;DHT22;4594;50.994;7.126;2023-06-26T13:06:06;32.50;28.30
9118;DHT22;4594;50.994;7.126;2023-06-26T13:08:33;32.30;28.30
9118;DHT22;4594;50.994;7.126;2023-06-26T13:10:59;32.20;28.30
9118;DHT22;4594;50.994;7.126;2023-06-26T13:13:25;32.10;28.20
9118;DHT22;4594;50.994;7.126;2023-06-26T13:15:51;32.00;28.20
9118;DHT22;4594;50.994;7.126;2023-06-26T13:18:17;31.90;28.20
9118;DHT22;4594;50.994;7.126;2023-06-26T13:20:42;31.80;28.20
9118;DHT22;4594;50.994;7.126;2023-06-26T13:23:08;31.70;28.20
9118;DHT22;4594;50.994;7.126;2023-06-26T13:25:34;31.60;28.20
9118;DHT22;4594;50.994;7.126;2023-06-26T13:28:01;31.40;28.20
9118;DHT22;4594;50.994;7.126;2023-06-26T13:30:26;31.40;28.30
9118;DHT22;4594;50.994;7.126;2023-06-26T13:32:52;31.40;28.30
9118;DHT22;4594;50.994;7.126;2023-06-26T13:35:18;31.30;28.20
9118;DHT22;4594;50.994;7.126;2023-06-26T13:37:44;31.20;28.20
9118;DHT22;4594;50.994;7.126;2023-06-26T13:40:11;31.20;28.30
9118;DHT22;4594;50.994;7.126;2023-06-26T13:42:37;31.10;28.20
9118;DHT22;4594;50.994;7.126;2023-06-26T13:45:03;31.00;28.20
9118;DHT22;4594;50.994;7.126;2023-06-26T13:47:29;31.00;28.20
9118;DHT22;4594;50.994;7.126;2023-06-26T13:49:55;30.90;28.20
9118;DHT22;4594;50.994;7.126;2023-06-26T13:52:21;30.80;28.10
9118;DHT22;4594;50.994;7.126;2023-06-26T13:54:47;30.80;28.20
9118;DHT22;4594;50.994;7.126;2023-06-26T13:57:12;30.70;28.10
9118;DHT22;4594;50.994;7.126;2023-06-26T13:59:39;30.60;28.10
9118;DHT22;4594;50.994;7.126;2023-06-26T14:02:05;30.60;28.10
9118;DHT22;4594;50.994;7.126;2023-06-26T14:04:33;30.50;28.00
9118;DHT22;4594;50.994;7.126;2023-06-26T14:06:59;30.40;27.90
9118;DHT22;4594;50.994;7.126;2023-06-26T14:09:25;30.30;27.90
9118;DHT22;4594;50.994;7.126;2023-06-26T14:11:51;30.20;27.80
9118;DHT22;4594;50.994;7.126;2023-06-26T14:14:16;30.10;27.80
9118;DHT22;4594;50.994;7.126;2023-06-26T14:16:42;30.10;27.90
9118;DHT22;4594;50.994;7.126;2023-06-26T14:19:08;30.00;27.80
9118;DHT22;4594;50.994;7.126;2023-06-26T14:21:41;30.00;27.90
9118;DHT22;4594;50.994;7.126;2023-06-26T14:24:07;29.90;27.80
9118;DHT22;4594;50.994;7.126;2023-06-26T14:26:32;29.90;27.80
9118;DHT22;4594;50.994;7.126;2023-06-26T14:28:59;29.80;27.80
9118;DHT22;4594;50.994;7.126;2023-06-26T14:31:26;29.80;27.80
9118;DHT22;4594;50.994;7.126;2023-06-26T14:33:52;29.80;27.70
9118;DHT22;4594;50.994;7.126;2023-06-26T14:36:18;29.70;27.70
9118;DHT22;4594;50.994;7.126;2023-06-26T14:41:21;29.60;27.50
9118;DHT22;4594;50.994;7.126;2023-06-26T14:43:47;29.60;27.60
9118;DHT22;4594;50.994;7.126;2023-06-26T14:46:14;29.60;27.60
9118;DHT22;4594;50.994;7.126;2023-06-26T14:48:39;29.50;27.60
9118;DHT22;4594;50.994;7.126;2023-06-26T14:51:05;29.50;27.60
9118;DHT22;4594;50.994;7.126;2023-06-26T14:53:31;29.40;27.50
9118;DHT22;4594;50.994;7.126;2023-06-26T14:55:56;29.30;27.50
9118;DHT22;4594;50.994;7.126;2023-06-26T14:58:22;29.30;27.60
9118;DHT22;4594;50.994;7.126;2023-06-26T15:00:48;29.30;27.60
9118;DHT22;4594;50.994;7.126;2023-06-26T15:03:14;29.30;27.70
9118;DHT22;4594;50.994;7.126;2023-06-26T15:05:39;29.20;27.70
9118;DHT22;4594;50.994;7.126;2023-06-26T15:08:05;29.20;27.70
9118;DHT22;4594;50.994;7.126;2023-06-26T15:10:31;29.20;27.80
9118;DHT22;4594;50.994;7.126;2023-06-26T15:12:56;29.20;27.80
9118;DHT22;4594;50.994;7.126;2023-06-26T15:15:22;29.20;27.90
9118;DHT22;4594;50.994;7.126;2023-06-26T15:17:48;29.10;27.90
9118;DHT22;4594;50.994;7.126;2023-06-26T15:20:13;29.10;27.80
9118;DHT22;4594;50.994;7.126;2023-06-26T15:22:39;29.10;27.80
9118;DHT22;4594;50.994;7.126;2023-06-26T15:25:06;29.10;27.80
9118;DHT22;4594;50.994;7.126;2023-06-26T15:27:32;29.10;27.80
9118;DHT22;4594;50.994;7.126;2023-06-26T15:29:58;29.00;27.70
9118;DHT22;4594;50.994;7.126;2023-06-26T15:32:23;29.00;27.80
9118;DHT22;4594;50.994;7.126;2023-06-26T15:34:49;28.90;27.70
9118;DHT22;4594;50.994;7.126;2023-06-26T15:37:15;28.90;27.70
9118;DHT22;4594;50.994;7.126;2023-06-26T15:39:42;28.90;27.80
9118;DHT22;4594;50.994;7.126;2023-06-26T15:42:08;28.80;27.80
9118;DHT22;4594;50.994;7.126;2023-06-26T15:44:33;28.80;27.80
9118;DHT22;4594;50.994;7.126;2023-06-26T15:46:59;28.70;27.80
9118;DHT22;4594;50.994;7.126;2023-06-26T15:49:25;28.70;27.90
9118;DHT22;4594;50.994;7.126;2023-06-26T15:51:52;28.70;28.00
9118;DHT22;4594;50.994;7.126;2023-06-26T15:54:17;28.60;28.00
9118;DHT22;4594;50.994;7.126;2023-06-26T15:56:43;28.60;27.90
9118;DHT22;4594;50.994;7.126;2023-06-26T15:59:09;28.60;28.00
9118;DHT22;4594;50.994;7.126;2023-06-26T16:01:34;28.50;27.90
9118;DHT22;4594;50.994;7.126;2023-06-26T16:04:00;28.50;28.00
9118;DHT22;4594;50.994;7.126;2023-06-26T16:06:26;28.50;28.00
9118;DHT22;4594;50.994;7.126;2023-06-26T16:08:52;28.40;28.00
9118;DHT22;4594;50.994;7.126;2023-06-26T16:11:18;28.40;28.00
9118;DHT22;4594;50.994;7.126;2023-06-26T16:13:45;28.40;28.00
9118;DHT22;4594;50.994;7.126;2023-06-26T16:16:11;28.40;28.00
9118;DHT22;4594;50.994;7.126;2023-06-26T16:18:38;28.30;27.90
9118;DHT22;4594;50.994;7.126;2023-06-26T16:21:04;28.30;27.90